Time;durP1;ratioP1;P1;durP2;ratioP2;P2;SDS_P1;SDS_P2;PMS_P1;PMS_P2;Temp;Humidity;BMP_temperature;BMP_pressure;BME280_temperature;BME280_humidity;BME280_pressure;Samples;Min_cycle;Max_cycle;Signal;HPM_P1;HPM_P2
2023/01/09 00:02:21;;;;;;;2.43;1.20;;;;;;;7.52;83.90;98774.25;5071675;28;20250;-77
2023/01/09 00:04:49;;;;;;;2.83;1.30;;;;;;;7.48;84.61;98771.81;5071636;28;20261;-78
2023/01/09 00:07:15;;;;;;;1.50;1.40;;;;;;;7.40;84.84;98747.88;5071400;28;20767;-77
2023/01/09 00:09:41;;;;;;;2.83;1.50;;;;;;;7.38;85.20;98752.28;5071395;28;20250;-77
2023/01/09 00:12:08;;;;;;;1.23;1.03;;;;;;;7.39;86.02;98743.56;5071009;28;20205;-76
2023/01/09 00:14:34;;;;;;;1.00;1.00;;;;;;;7.31;86.20;98713.53;5071576;28;20208;-77
2023/01/09 00:17:00;;;;;;;0.83;0.83;;;;;;;7.31;87.15;98684.13;5071449;28;20760;-79
2023/01/09 00:19:26;;;;;;;1.30;1.20;;;;;;;7.34;87.59;98664.09;5071319;28;20227;-79
2023/01/09 00:21:54;;;;;;;0.80;0.80;;;;;;;7.39;88.06;98653.56;5071102;28;20201;-77
2023/01/09 00:24:20;;;;;;;1.33;0.90;;;;;;;7.45;87.76;98643.00;5066329;28;20580;-76
2023/01/09 00:26:47;;;;;;;1.00;0.90;;;;;;;7.44;88.77;98633.50;5062829;28;20752;-76
2023/01/09 00:29:13;;;;;;;1.83;1.07;;;;;;;7.47;89.38;98614.34;5071486;28;20258;-79
2023/01/09 00:31:39;;;;;;;3.00;1.10;;;;;;;7.51;88.74;98592.56;5057251;28;20280;-77
2023/01/09 00:34:09;;;;;;;0.80;0.80;;;;;;;7.52;88.95;98587.31;5051414;28;20260;-77
2023/01/09 00:36:35;;;;;;;1.27;1.00;;;;;;;7.45;90.59;98570.31;5051343;28;20205;-77
2023/01/09 00:39:03;;;;;;;1.17;0.80;;;;;;;7.46;90.31;98551.22;5051153;28;20205;-77
2023/01/09 00:41:32;;;;;;;1.33;0.90;;;;;;;7.53;90.79;98541.44;5050525;28;20255;-77
2023/01/09 00:44:02;;;;;;;1.07;0.70;;;;;;;7.61;90.31;98523.84;5051247;28;20205;-78
2023/01/09 00:46:33;;;;;;;1.10;0.90;;;;;;;7.63;91.01;98526.38;5051189;28;20288;-77
2023/01/09 00:49:02;;;;;;;0.97;0.93;;;;;;;7.68;90.47;98530.47;5051164;28;20208;-77
2023/01/09 00:51:28;;;;;;;1.63;1.20;;;;;;;7.70;89.97;98543.41;5050668;28;20225;-77
2023/01/09 00:53:55;;;;;;;1.70;0.97;;;;;;;7.78;90.60;98540.53;5054367;28;20789;-77
2023/01/09 00:56:22;;;;;;;0.90;0.90;;;;;;;7.80;90.22;98543.91;5062723;28;20258;-79
2023/01/09 00:58:51;;;;;;;0.80;0.80;;;;;;;7.76;89.49;98562.19;5071171;28;20724;-77
2023/01/09 01:01:17;;;;;;;1.20;0.80;;;;;;;7.77;89.98;98550.09;5070615;28;20232;-77
2023/01/09 01:03:43;;;;;;;0.90;0.90;;;;;;;7.85;89.22;98565.34;5071023;28;20286;-77
2023/01/09 01:08:55;;;;;;;0.83;0.80;;;;;;;7.86;89.64;98564.47;5073816;28;20235;-78
2023/01/09 01:11:23;;;;;;;2.33;1.00;;;;;;;7.94;89.42;98563.25;5074230;28;20237;-77
2023/01/09 01:13:49;;;;;;;1.13;1.03;;;;;;;8.01;88.53;98582.06;5074635;28;20205;-77
2023/01/09 01:16:17;;;;;;;1.23;0.90;;;;;;;8.02;88.19;98586.34;5074542;28;20285;-76
2023/01/09 01:18:43;;;;;;;0.80;0.80;;;;;;;8.04;88.73;98612.25;5074443;28;20211;-78
2023/01/09 01:21:11;;;;;;;1.20;1.20;;;;;;;8.02;88.37;98606.28;5073895;28;20612;-77
2023/01/09 01:23:38;;;;;;;1.77;0.87;;;;;;;8.06;87.99;98610.47;5069549;28;20209;-78
2023/01/09 01:26:05;;;;;;;1.27;1.00;;;;;;;8.07;88.31;98617.38;5066014;28;20257;-77
2023/01/09 01:28:33;;;;;;;0.97;0.90;;;;;;;8.10;88.22;98617.22;5074233;28;20615;-77
2023/01/09 01:31:00;;;;;;;2.00;0.90;;;;;;;8.09;87.74;98624.19;5073910;28;20229;-78
2023/01/09 01:33:27;;;;;;;1.00;0.90;;;;;;;8.09;88.02;98624.19;5073994;28;20212;-77
2023/01/09 01:36:00;;;;;;;0.87;0.87;;;;;;;8.13;88.33;98611.94;5074279;28;20212;-78
2023/01/09 01:38:26;;;;;;;2.10;1.10;;;;;;;8.15;88.12;98618.75;5074275;28;20204;-78
2023/01/09 01:40:53;;;;;;;1.13;1.03;;;;;;;8.18;88.00;98606.53;5073765;28;20594;-77
2023/01/09 01:43:19;;;;;;;0.80;0.80;;;;;;;8.13;89.56;98586.78;5073990;28;20200;-77
2023/01/09 01:45:47;;;;;;;1.77;1.00;;;;;;;8.11;90.33;98570.41;5074141;28;20208;-78
2023/01/09 01:48:16;;;;;;;1.10;1.00;;;;;;;8.11;90.54;98552.22;5073873;28;20959;-77
2023/01/09 01:50:46;;;;;;;0.97;0.90;;;;;;;8.10;91.22;98529.72;5073528;28;20888;-78
2023/01/09 01:53:18;;;;;;;1.67;1.23;;;;;;;8.10;91.49;98516.72;5071153;28;20208;-78
2023/01/09 01:55:50;;;;;;;0.90;0.90;;;;;;;8.13;91.82;98505.38;5064239;28;20206;-78
2023/01/09 01:58:17;;;;;;;1.80;1.10;;;;;;;8.10;92.12;98490.75;5073794;28;20235;-78
2023/01/09 02:00:46;;;;;;;2.17;1.20;;;;;;;8.09;92.33;98486.47;5073221;28;20250;-77
2023/01/09 02:03:17;;;;;;;1.10;1.00;;;;;;;8.09;92.73;98473.47;5073880;28;20238;-77
2023/01/09 02:05:44;;;;;;;1.47;1.20;;;;;;;8.08;93.01;98455.34;5073695;28;20274;-77
2023/01/09 02:08:11;;;;;;;2.10;1.10;;;;;;;8.08;92.92;98463.97;5073521;28;20225;-77
2023/01/09 02:10:39;;;;;;;1.17;1.07;;;;;;;8.07;92.96;98446.72;5073209;28;20309;-77
2023/01/09 02:13:08;;;;;;;1.93;0.83;;;;;;;8.05;93.43;98439.88;5073199;28;20670;-77
2023/01/09 02:15:47;;;;;;;1.93;1.83;;;;;;;8.06;93.63;98431.16;5073782;28;20230;-76
2023/01/09 02:18:24;;;;;;;1.50;1.10;;;;;;;8.05;94.24;98417.34;5073139;28;20201;-77
2023/01/09 02:20:56;;;;;;;1.20;1.10;;;;;;;8.06;95.10;98411.22;5072834;28;20277;-78
2023/01/09 02:24:10;;;;;;;1.33;1.23;;;;;;;8.09;94.79;98398.13;5069066;28;20231;-78
2023/01/09 02:27:02;;;;;;;1.20;1.10;;;;;;;8.11;94.51;98406.69;5059153;28;20205;-77
2023/01/09 02:30:13;;;;;;;1.40;1.17;;;;;;;8.10;95.26;98394.59;5053123;28;20201;-78
2023/01/09 02:32:58;;;;;;;1.50;1.40;;;;;;;8.06;95.66;98377.44;5053114;28;20206;-77
2023/01/09 02:35:40;;;;;;;1.00;1.00;;;;;;;8.10;96.02;98371.22;5052974;28;20638;-77
2023/01/09 02:38:16;;;;;;;1.30;1.20;;;;;;;8.13;95.77;98370.25;5052884;28;20198;-78
2023/01/09 02:40:50;;;;;;;1.30;1.20;;;;;;;8.12;96.71;98359.00;5052756;28;20229;-77
2023/01/09 02:43:16;;;;;;;1.43;1.33;;;;;;;8.11;97.01;98344.31;5052893;28;20205;-79
2023/01/09 02:45:43;;;;;;;1.40;1.30;;;;;;;8.12;97.11;98339.97;5052744;28;20209;-78
2023/01/09 02:48:12;;;;;;;2.03;1.30;;;;;;;8.15;97.30;98343.28;5052860;28;20259;-77
2023/01/09 02:50:47;;;;;;;1.60;1.07;;;;;;;8.10;97.69;98329.63;5052084;28;20649;-77
2023/01/09 02:53:33;;;;;;;1.77;1.50;;;;;;;8.13;97.95;98319.13;5052902;28;20205;-77
2023/01/09 02:56:13;;;;;;;1.23;1.17;;;;;;;8.18;97.81;98323.28;5060891;28;20205;-77
2023/01/09 02:58:57;;;;;;;1.50;1.33;;;;;;;8.12;98.23;98311.38;5052590;28;20267;-78
2023/01/09 03:01:32;;;;;;;1.40;1.30;;;;;;;8.10;98.66;98306.25;5052365;28;20276;-77
2023/01/09 03:04:05;;;;;;;1.80;1.40;;;;;;;8.14;98.58;98304.38;5052591;28;20211;-77
2023/01/09 03:06:40;;;;;;;1.83;1.20;;;;;;;8.18;98.30;98297.28;5052515;28;20212;-77
2023/01/09 03:09:13;;;;;;;1.43;1.33;;;;;;;8.15;99.09;98293.06;5052364;28;20274;-77
2023/01/09 03:11:46;;;;;;;1.40;1.30;;;;;;;8.15;99.55;98285.28;5052054;28;20229;-77
2023/01/09 03:14:17;;;;;;;5.73;1.30;;;;;;;8.20;99.05;98285.06;5052416;28;20281;-77
2023/01/09 03:16:48;;;;;;;1.30;1.20;;;;;;;8.27;98.35;98289.09;5052429;28;20637;-77
2023/01/09 03:19:18;;;;;;;1.57;1.47;;;;;;;8.27;97.82;98305.53;5052280;28;20327;-77
2023/01/09 03:21:47;;;;;;;1.47;1.37;;;;;;;8.26;97.83;98313.38;5051522;28;20240;-78
2023/01/09 03:24:13;;;;;;;1.80;1.70;;;;;;;8.30;97.70;98301.94;5058355;28;20208;-77
2023/01/09 03:26:40;;;;;;;1.63;1.53;;;;;;;8.25;97.71;98304.75;5063532;28;20675;-77
2023/01/09 03:29:06;;;;;;;1.60;1.50;;;;;;;8.26;98.48;98298.63;5072026;28;20224;-77
2023/01/09 03:31:33;;;;;;;1.77;1.67;;;;;;;8.27;98.29;98295.13;5070843;28;20229;-77
2023/01/09 03:33:59;;;;;;;2.00;1.77;;;;;;;8.25;98.76;98294.34;5071902;28;20208;-77
2023/01/09 03:36:27;;;;;;;2.10;1.90;;;;;;;8.25;98.66;98293.50;5071739;28;20205;-79
2023/01/09 03:38:53;;;;;;;2.80;1.80;;;;;;;8.23;99.24;98285.78;5072074;28;20601;-77
2023/01/09 03:41:20;;;;;;;2.30;1.80;;;;;;;8.24;99.68;98286.63;5071209;28;20756;-77
2023/01/09 03:43:47;;;;;;;1.87;1.77;;;;;;;8.31;99.14;98288.03;5071882;28;20246;-79
2023/01/09 03:46:13;;;;;;;1.90;1.60;;;;;;;8.23;99.57;98290.97;5071895;28;20208;-77
2023/01/09 03:48:39;;;;;;;1.50;1.40;;;;;;;8.02;99.61;98295.34;5071675;28;20294;-77
2023/01/09 03:51:06;;;;;;;1.70;1.60;;;;;;;8.09;99.71;98288.16;5071146;28;20225;-77
2023/01/09 03:53:33;;;;;;;2.00;1.90;;;;;;;8.20;99.25;98280.69;5066900;28;20216;-77
2023/01/09 03:56:00;;;;;;;2.07;1.80;;;;;;;8.23;99.19;98283.19;5063289;28;20200;-77
2023/01/09 03:58:27;;;;;;;1.67;1.57;;;;;;;8.20;98.66;98288.50;5071708;28;20258;-77
2023/01/09 04:00:59;;;;;;;1.90;1.80;;;;;;;8.15;99.67;98273.13;5071022;28;20229;-78
2023/01/09 04:03:25;;;;;;;1.80;1.67;;;;;;;8.15;99.31;98270.53;5071461;28;20205;-79
2023/01/09 04:05:52;;;;;;;2.13;1.80;;;;;;;8.18;99.08;98274.72;5071928;28;20211;-78
2023/01/09 04:08:18;;;;;;;1.70;1.60;;;;;;;8.20;99.25;98280.69;5071475;28;20738;-77
2023/01/09 04:10:47;;;;;;;1.93;1.63;;;;;;;8.21;98.87;98289.38;5071194;28;20223;-76
2023/01/09 04:13:13;;;;;;;1.80;1.70;;;;;;;8.21;99.06;98290.19;5071472;28;20273;-77
2023/01/09 04:15:39;;;;;;;1.53;1.43;;;;;;;8.10;99.04;98297.63;5071460;28;20671;-77
2023/01/09 04:18:06;;;;;;;1.70;1.60;;;;;;;8.17;99.99;98286.06;5071418;28;20266;-77
2023/01/09 04:20:33;;;;;;;1.67;1.57;;;;;;;8.25;99.62;98285.72;5116384;22;20789;-78
2023/01/09 04:22:59;;;;;;;1.70;1.37;;;;;;;8.24;99.35;98284.84;5035478;28;20259;-79
2023/01/09 04:25:26;;;;;;;2.70;1.57;;;;;;;8.28;99.39;98296.78;5040003;28;20738;-80
2023/01/09 04:27:54;;;;;;;1.50;1.40;;;;;;;8.14;98.98;98313.00;5053444;28;20209;-79
2023/01/09 04:30:20;;;;;;;1.53;1.43;;;;;;;8.05;99.67;98295.22;5037617;28;20225;-79
2023/01/09 04:32:46;;;;;;;1.80;1.30;;;;;;;8.09;100.00;98285.56;5053938;28;20205;-79
2023/01/09 04:35:13;;;;;;;1.57;1.47;;;;;;;8.10;100.00;98293.25;5054280;28;20278;-79
2023/01/09 04:37:39;;;;;;;1.93;1.60;;;;;;;8.06;100.00;98293.47;5054646;28;20205;-79
2023/01/09 04:40:09;;;;;;;1.33;1.23;;;;;;;7.99;100.00;98295.50;5054303;28;20208;-79
2023/01/09 04:42:35;;;;;;;1.53;1.43;;;;;;;8.06;100.00;98288.25;5057512;28;20213;-79
2023/01/09 04:45:03;;;;;;;1.80;1.33;;;;;;;7.90;100.00;98291.50;5058404;28;20699;-79
2023/01/09 04:47:30;;;;;;;1.43;1.33;;;;;;;7.97;100.00;98292.13;5058790;28;20208;-79
2023/01/09 04:49:56;;;;;;;1.50;1.40;;;;;;;8.01;100.00;98288.47;5057958;28;20232;-79
2023/01/09 04:52:23;;;;;;;1.40;1.30;;;;;;;8.09;100.00;98293.34;5058535;28;20262;-79
2023/01/09 04:54:50;;;;;;;1.60;1.50;;;;;;;8.10;100.00;98302.81;5058350;28;20668;-80
2023/01/09 04:57:16;;;;;;;1.40;1.30;;;;;;;8.09;100.00;98321.94;5058346;28;20217;-80
2023/01/09 04:59:43;;;;;;;1.30;1.20;;;;;;;8.00;99.78;98335.31;5051427;28;20210;-78
2023/01/09 05:02:10;;;;;;;1.50;1.40;;;;;;;7.93;100.00;98338.16;5051615;28;20233;-79
2023/01/09 05:04:37;;;;;;;0.90;0.90;;;;;;;7.99;99.61;98339.66;5058639;28;20259;-79
2023/01/09 05:07:03;;;;;;;0.70;0.70;;;;;;;8.05;99.65;98349.78;5057974;28;20205;-79
2023/01/09 05:09:30;;;;;;;0.57;0.50;;;;;;;7.83;98.31;98370.63;5058157;28;20244;-78
2023/01/09 05:11:56;;;;;;;0.90;0.50;;;;;;;7.96;98.15;98376.16;5057629;28;20248;-79
2023/01/09 05:14:22;;;;;;;0.53;0.53;;;;;;;7.99;98.23;98385.56;5058412;28;20205;-78
2023/01/09 05:16:49;;;;;;;0.63;0.63;;;;;;;8.00;98.84;98382.91;5058252;28;20266;-78
2023/01/09 05:19:16;;;;;;;0.40;0.40;;;;;;;8.08;98.60;98383.41;5058140;28;20209;-79
2023/01/09 05:21:43;;;;;;;0.87;0.57;;;;;;;8.11;97.71;98403.25;5057193;28;20241;-79
2023/01/09 05:24:09;;;;;;;0.47;0.47;;;;;;;8.09;97.15;98405.91;5058426;28;20263;-79
2023/01/09 05:26:35;;;;;;;0.67;0.30;;;;;;;8.01;96.70;98418.38;5057985;28;20212;-79
2023/01/09 05:29:02;;;;;;;0.40;0.40;;;;;;;7.95;96.94;98426.44;5052479;28;20221;-79
2023/01/09 05:31:28;;;;;;;0.67;0.50;;;;;;;7.87;96.13;98455.31;5049160;28;20254;-79
2023/01/09 05:33:58;;;;;;;0.57;0.57;;;;;;;7.63;96.32;98453.66;5057480;28;20231;-79
2023/01/09 05:36:25;;;;;;;0.60;0.60;;;;;;;7.62;96.73;98459.78;5057615;28;20236;-79
2023/01/09 05:38:52;;;;;;;1.33;0.60;;;;;;;7.59;97.53;98439.97;5057390;28;20208;-79
2023/01/09 05:41:18;;;;;;;1.33;0.80;;;;;;;7.60;97.28;98449.44;5056880;28;20267;-78
2023/01/09 05:43:44;;;;;;;1.07;0.70;;;;;;;7.60;97.17;98446.00;5057256;28;20205;-78
2023/01/09 05:46:11;;;;;;;0.93;0.77;;;;;;;7.43;96.92;98464.81;5057228;28;20257;-79
2023/01/09 05:48:37;;;;;;;1.27;0.80;;;;;;;7.47;96.87;98458.59;5056577;28;20229;-77
2023/01/09 05:51:04;;;;;;;1.00;1.00;;;;;;;7.35;97.07;98459.91;5056104;28;20239;-79
2023/01/09 05:53:31;;;;;;;1.30;1.20;;;;;;;7.44;97.48;98443.16;5056303;28;20208;-79
2023/01/09 05:55:58;;;;;;;1.10;1.10;;;;;;;7.31;97.33;98454.00;5056578;28;20266;-79
2023/01/09 05:58:24;;;;;;;2.30;1.30;;;;;;;7.28;97.76;98459.31;5052468;28;20206;-79
2023/01/09 06:00:52;;;;;;;1.43;1.30;;;;;;;7.19;97.87;98451.00;5048151;28;20259;-79
2023/01/09 06:03:18;;;;;;;1.40;1.30;;;;;;;7.12;97.55;98451.25;5056372;28;20239;-79
2023/01/09 06:05:45;;;;;;;1.63;1.53;;;;;;;7.29;97.91;98448.00;5056638;28;20636;-78
2023/01/09 06:08:11;;;;;;;1.93;1.83;;;;;;;7.37;97.48;98450.31;5056564;28;20287;-79
2023/01/09 06:10:39;;;;;;;2.63;2.10;;;;;;;7.43;96.75;98464.81;5055344;28;20648;-79
2023/01/09 06:13:05;;;;;;;3.40;2.30;;;;;;;7.27;96.30;98483.56;5056652;28;20253;-79
2023/01/09 06:15:31;;;;;;;3.03;2.80;;;;;;;7.08;95.72;98503.31;5056261;28;20559;-79
2023/01/09 06:17:58;;;;;;;4.20;2.90;;;;;;;7.06;96.39;98498.16;5056045;28;20208;-79
2023/01/09 06:20:24;;;;;;;3.10;2.90;;;;;;;7.10;96.59;98504.09;5055520;28;20233;-78
2023/01/09 06:22:52;;;;;;;3.20;3.00;;;;;;;7.19;97.31;98495.13;5056029;28;20266;-79
2023/01/09 06:25:18;;;;;;;3.33;2.90;;;;;;;7.07;95.34;98524.94;5056729;28;20679;-79
2023/01/09 06:27:46;;;;;;;2.80;2.50;;;;;;;7.18;95.14;98542.75;5056373;28;20283;-79
2023/01/09 06:30:13;;;;;;;2.57;2.37;;;;;;;6.91;94.53;98571.31;5044309;28;20704;-78
2023/01/09 06:32:39;;;;;;;2.40;2.30;;;;;;;6.90;94.18;98578.28;5054298;28;20209;-78
2023/01/09 06:35:06;;;;;;;3.20;2.93;;;;;;;6.94;94.23;98597.19;5056257;28;20208;-78
2023/01/09 06:37:32;;;;;;;4.43;3.27;;;;;;;6.91;94.78;98595.50;5056192;28;20221;-78
2023/01/09 06:39:58;;;;;;;8.47;7.10;;;;;;;7.02;94.51;98592.56;5055580;28;20570;-79
2023/01/09 06:42:25;;;;;;;5.23;3.30;;;;;;;6.94;94.40;98598.00;5056327;28;20617;-79
2023/01/09 06:44:52;;;;;;;3.50;3.10;;;;;;;6.68;94.70;98593.72;5056418;28;20209;-79
2023/01/09 06:47:19;;;;;;;4.17;3.87;;;;;;;6.72;95.83;98566.78;5055977;28;20208;-79
2023/01/09 06:49:45;;;;;;;4.03;3.63;;;;;;;6.64;96.57;98549.75;5056396;28;20231;-78
2023/01/09 06:52:12;;;;;;;3.50;3.20;;;;;;;6.80;96.90;98531.94;5055568;28;20229;-79
2023/01/09 06:54:38;;;;;;;3.00;2.80;;;;;;;6.82;96.54;98538.78;5056175;28;20219;-78
2023/01/09 06:57:05;;;;;;;4.63;2.90;;;;;;;6.69;95.63;98561.69;5056489;28;20270;-80
2023/01/09 06:59:31;;;;;;;3.10;2.80;;;;;;;6.72;95.03;98584.94;5051363;28;20202;-80
2023/01/09 07:01:59;;;;;;;3.07;2.80;;;;;;;6.82;94.51;98603.63;5049165;28;20283;-80
2023/01/09 07:04:25;;;;;;;3.53;3.23;;;;;;;6.62;94.17;98627.59;5057564;28;20266;-80
2023/01/09 07:06:52;;;;;;;3.67;3.20;;;;;;;6.50;94.11;98644.41;5057345;28;20623;-80
2023/01/09 07:09:18;;;;;;;3.40;3.10;;;;;;;6.54;93.53;98643.41;5057260;28;20715;-80
2023/01/09 07:11:44;;;;;;;5.40;3.73;;;;;;;6.53;92.81;98664.19;5056248;28;20229;-79
2023/01/09 07:14:11;;;;;;;4.83;3.63;;;;;;;6.53;92.13;98698.72;5057532;28;20259;-80
2023/01/09 07:16:37;;;;;;;5.47;4.13;;;;;;;6.53;92.39;98693.53;5056510;28;20205;-80
2023/01/09 07:19:05;;;;;;;4.47;3.40;;;;;;;6.45;92.18;98705.88;5056807;28;20206;-80
2023/01/09 07:21:31;;;;;;;6.30;4.30;;;;;;;6.20;92.03;98720.44;5055742;28;20788;-80
2023/01/09 07:23:57;;;;;;;4.80;3.80;;;;;;;6.18;91.77;98738.63;5056682;28;20274;-79
2023/01/09 07:26:23;;;;;;;5.23;3.57;;;;;;;6.18;92.68;98725.66;5056301;28;20212;-79
2023/01/09 07:28:50;;;;;;;5.13;4.50;;;;;;;6.00;92.66;98732.22;5051240;28;20251;-80
2023/01/09 07:31:16;;;;;;;5.33;4.83;;;;;;;6.12;92.45;98723.25;5047908;28;20216;-80
2023/01/09 07:33:42;;;;;;;8.03;4.87;;;;;;;6.11;92.31;98739.72;5056043;28;20251;-79
2023/01/09 07:36:10;;;;;;;7.30;5.33;;;;;;;5.99;91.73;98746.09;5055971;28;20201;-79
2023/01/09 07:38:37;;;;;;;5.97;5.47;;;;;;;6.04;91.39;98743.34;5056698;28;20220;-80
2023/01/09 07:41:03;;;;;;;6.40;5.80;;;;;;;5.93;93.31;98728.09;5056444;28;20236;-79
2023/01/09 07:43:30;;;;;;;10.00;6.30;;;;;;;5.76;94.14;98695.72;5056765;28;20216;-79
2023/01/09 07:45:56;;;;;;;6.97;6.43;;;;;;;6.01;94.28;98684.72;5056932;28;20201;-80
2023/01/09 07:48:22;;;;;;;5.17;4.73;;;;;;;6.14;94.08;98683.50;5056980;28;20205;-80
2023/01/09 07:50:49;;;;;;;5.97;5.47;;;;;;;6.07;92.97;98707.03;5054740;28;20620;-79
2023/01/09 07:53:16;;;;;;;5.23;4.77;;;;;;;6.06;nan;98719.09;5054973;28;20259;-79
2023/01/09 07:55:43;;;;;;;5.23;4.80;;;;;;;5.96;93.18;98723.69;5054426;28;20204;-78
2023/01/09 07:58:09;;;;;;;4.37;3.97;;;;;;;5.87;93.48;98718.75;5052254;28;20232;-78
2023/01/09 08:00:36;;;;;;;6.18;5.68;;;;;;;6.02;93.50;98720.06;5043375;28;20433;-79
2023/01/09 08:03:02;;;;;;;4.77;4.27;;;;;;;6.11;93.35;98724.16;5054306;28;20213;-79
2023/01/09 08:05:28;;;;;;;5.00;4.37;;;;;;;6.09;93.39;98739.75;5053653;28;20747;-79
2023/01/09 08:07:55;;;;;;;5.13;4.70;;;;;;;6.11;92.39;98750.06;5053618;28;20267;-78
2023/01/09 08:10:22;;;;;;;4.97;4.57;;;;;;;6.18;92.95;98749.00;5053313;28;20233;-79
2023/01/09 08:12:49;;;;;;;4.63;4.20;;;;;;;6.15;92.04;98775.84;5053737;28;20266;-79
2023/01/09 08:15:16;;;;;;;4.40;4.10;;;;;;;6.12;91.37;98775.91;5053217;28;20680;-79
2023/01/09 08:17:44;;;;;;;4.53;4.23;;;;;;;5.91;92.97;98769.56;5058795;28;20266;-76
2023/01/09 08:20:12;;;;;;;4.53;4.23;;;;;;;5.96;92.95;98761.69;5058981;28;20201;-79
2023/01/09 08:22:38;;;;;;;5.13;4.57;;;;;;;5.92;93.31;98749.69;5060584;28;20263;-78
2023/01/09 08:25:05;;;;;;;5.57;5.07;;;;;;;5.95;93.70;98740.13;5060812;28;20205;-79
2023/01/09 08:27:33;;;;;;;4.60;4.20;;;;;;;5.93;94.46;98726.34;5061331;28;20205;-78
2023/01/09 08:30:00;;;;;;;4.73;4.43;;;;;;;6.09;94.38;98707.81;5050782;28;20641;-78
2023/01/09 08:32:26;;;;;;;4.23;3.83;;;;;;;6.23;94.53;98707.44;5056963;28;20201;-78
2023/01/09 08:34:53;;;;;;;4.43;3.50;;;;;;;6.22;94.07;98726.44;5060534;28;20262;-79
2023/01/09 08:37:19;;;;;;;4.27;3.37;;;;;;;6.35;93.94;98732.97;5060891;28;20205;-78
2023/01/09 08:39:45;;;;;;;7.80;3.90;;;;;;;6.33;93.55;98753.75;5059653;28;20205;-79
2023/01/09 08:47:41;;;;;;;3.93;3.10;;;;;;;6.64;92.92;98760.63;5060852;28;20232;-78
2023/01/09 08:50:08;;;;;;;2.50;2.30;;;;;;;6.74;92.16;98762.03;5060370;28;20229;-79
2023/01/09 08:52:34;;;;;;;2.83;2.28;;;;;;;6.80;91.59;98799.03;5058993;28;20431;-78
2023/01/09 08:55:00;;;;;;;3.75;2.90;;;;;;;6.87;91.36;98818.72;5060430;28;20443;-79
2023/01/09 08:57:27;;;;;;;3.60;3.30;;;;;;;7.05;90.97;98819.91;5060929;28;20206;-79
2023/01/09 08:59:53;;;;;;;3.37;2.53;;;;;;;6.94;89.36;98866.94;5052197;28;20202;-78
2023/01/09 09:02:21;;;;;;;2.87;1.80;;;;;;;6.92;88.62;98886.88;5055279;28;20228;-78
2023/01/09 09:04:51;;;;;;;2.93;1.80;;;;;;;6.90;86.84;98937.94;5059838;28;20342;-78
2023/01/09 09:07:25;;;;;;;3.23;1.60;;;;;;;6.99;86.89;98955.81;5060597;28;20205;-78
2023/01/09 09:09:51;;;;;;;2.47;1.70;;;;;;;6.85;87.50;98965.75;5060388;28;20232;-78
2023/01/09 09:12:17;;;;;;;2.40;1.37;;;;;;;6.85;85.52;98971.78;5060491;28;20228;-79
2023/01/09 09:17:31;;;;;;;2.20;1.77;;;;;;;7.08;86.38;98981.53;5061023;28;20589;-78
2023/01/09 09:19:57;;;;;;;2.57;1.50;;;;;;;7.10;86.12;98991.88;5060146;28;20294;-77
2023/01/09 09:22:24;;;;;;;2.13;1.93;;;;;;;7.03;83.99;99029.25;5059927;28;20263;-79
2023/01/09 09:24:50;;;;;;;3.17;1.40;;;;;;;7.05;83.80;99062.03;5060396;28;20671;-79
2023/01/09 09:27:16;;;;;;;5.67;5.13;;;;;;;7.25;85.64;99039.88;5059830;28;20251;-79
2023/01/09 09:29:43;;;;;;;24.60;12.83;;;;;;;7.31;85.56;99037.97;5049600;28;20233;-79
2023/01/09 09:32:09;;;;;;;11.00;5.60;;;;;;;7.33;84.97;99053.47;5050881;28;20220;-79
2023/01/09 09:34:37;;;;;;;4.33;2.97;;;;;;;7.35;85.12;99059.47;5057381;28;20205;-79
2023/01/09 09:37:03;;;;;;;16.57;3.33;;;;;;;7.41;84.09;99074.03;5057535;28;20205;-79
2023/01/09 09:39:30;;;;;;;5.63;1.70;;;;;;;7.39;82.37;99119.97;5057413;28;20232;-79
2023/01/09 09:45:11;;;;;;;2.93;1.47;;;;;;;7.40;82.12;99132.91;5057074;28;20257;-79
2023/01/09 09:47:48;;;;;;;2.23;1.10;;;;;;;7.51;82.75;99120.50;5057694;28;20205;-79
2023/01/09 09:50:28;;;;;;;1.50;0.90;;;;;;;7.53;81.66;99136.88;5056649;28;20232;-79
2023/01/09 09:53:03;;;;;;;2.87;1.00;;;;;;;7.48;80.93;99154.31;5057111;28;20235;-80
2023/01/09 09:55:31;;;;;;;3.43;1.27;;;;;;;7.51;82.13;99158.56;5057135;28;20212;-79
2023/01/09 09:58:02;;;;;;;1.33;1.20;;;;;;;7.35;81.34;99178.88;5055872;28;20228;-79
2023/01/09 10:00:29;;;;;;;2.97;1.50;;;;;;;7.49;82.73;99169.00;5044286;28;20265;-78
2023/01/09 10:03:01;;;;;;;3.03;1.20;;;;;;;7.53;82.22;99167.16;5056128;28;20206;-79
2023/01/09 10:05:33;;;;;;;2.40;1.00;;;;;;;7.60;82.16;99168.72;5056681;28;20712;-80
2023/01/09 10:08:04;;;;;;;2.23;1.10;;;;;;;7.76;83.04;99148.34;5056888;28;20208;-79
2023/01/09 10:10:35;;;;;;;2.27;1.30;;;;;;;7.85;82.86;99147.22;5055660;28;20715;-78
2023/01/09 10:14:03;;;;;;;2.10;1.17;;;;;;;7.82;81.21;99176.75;5056492;28;20205;-80
2023/01/09 10:15:56;;;;;;;1.47;1.37;;;;;;;7.75;81.86;99168.28;5056189;28;20216;-79
2023/01/09 10:18:33;;;;;;;2.13;0.83;;;;;;;7.81;81.14;99145.63;5056492;28;20205;-80
2023/01/09 10:21:07;;;;;;;1.90;0.90;;;;;;;7.86;79.17;99185.31;5056988;28;20790;-81
2023/01/09 10:23:52;;;;;;;1.07;0.97;;;;;;;7.83;78.97;99199.25;5056348;28;20206;-79
2023/01/09 10:26:24;;;;;;;3.27;1.80;;;;;;;7.78;80.05;99198.50;5056495;28;20211;-79
2023/01/09 10:29:09;;;;;;;1.60;1.00;;;;;;;7.82;78.71;99227.88;5049907;28;20258;-80
2023/01/09 10:31:48;;;;;;;2.27;1.00;;;;;;;7.72;77.34;99235.06;5047288;28;20226;-80
2023/01/09 10:34:27;;;;;;;2.23;0.70;;;;;;;7.73;77.85;99239.34;5055920;28;20208;-81
2023/01/09 10:37:04;;;;;;;2.30;0.60;;;;;;;7.64;77.40;99263.81;5056133;28;20235;-80
2023/01/09 10:39:38;;;;;;;1.47;0.60;;;;;;;7.73;77.73;99249.72;5050655;28;20675;-79
2023/01/09 10:42:15;;;;;;;1.33;0.60;;;;;;;7.66;77.55;99246.44;5047642;28;20221;-80
2023/01/09 10:44:48;;;;;;;1.97;0.83;;;;;;;7.68;78.25;99249.00;5056177;28;20209;-80
2023/01/09 10:47:18;;;;;;;0.60;0.60;;;;;;;7.74;79.18;99222.88;5056209;28;20231;-80
2023/01/09 10:49:47;;;;;;;1.63;1.47;;;;;;;7.64;78.41;99226.63;5056097;28;20212;-80
2023/01/09 10:52:19;;;;;;;3.63;0.90;;;;;;;7.82;79.97;99199.28;5055581;28;20228;-80
2023/01/09 10:54:52;;;;;;;2.73;1.07;;;;;;;7.78;78.45;99206.31;5056232;28;20260;-78
2023/01/09 10:57:34;;;;;;;0.70;0.67;;;;;;;7.73;80.08;99179.59;5056486;28;20576;-80
2023/01/09 11:00:00;;;;;;;1.63;0.43;;;;;;;7.63;77.77;99211.91;5055729;28;20209;-80
2023/01/09 11:02:30;;;;;;;0.90;0.57;;;;;;;7.74;79.36;99200.34;5056160;28;20209;-80
2023/01/09 11:04:56;;;;;;;2.07;0.50;;;;;;;7.69;78.98;99186.66;5056071;28;20278;-79
2023/01/09 11:07:29;;;;;;;1.60;0.67;;;;;;;7.89;79.40;99180.88;5055241;28;20240;-79
2023/01/09 11:09:56;;;;;;;3.53;1.00;;;;;;;7.93;79.17;99177.31;5051162;28;20243;-79
2023/01/09 11:12:25;;;;;;;2.00;0.80;;;;;;;7.93;77.78;99200.69;5046482;28;20660;-79
2023/01/09 11:14:51;;;;;;;1.53;0.53;;;;;;;7.83;76.83;99213.97;5055289;28;20204;-79
2023/01/09 11:17:20;;;;;;;1.13;0.70;;;;;;;7.98;78.79;99208.34;5055254;28;20205;-80
2023/01/09 11:20:02;;;;;;;1.23;0.40;;;;;;;7.95;77.76;99224.88;5055524;28;20603;-78
2023/01/09 11:22:41;;;;;;;1.33;0.50;;;;;;;8.02;78.06;99204.75;5055317;28;20270;-80
2023/01/09 11:25:12;;;;;;;1.57;0.70;;;;;;;8.05;77.67;99228.09;5054960;28;20636;-78
2023/01/09 11:27:39;;;;;;;4.73;0.70;;;;;;;8.08;77.89;99224.53;5054795;28;20259;-79
2023/01/09 11:30:18;;;;;;;0.60;0.40;;;;;;;8.13;76.81;99246.91;5054310;28;20213;-79
2023/01/09 11:32:46;;;;;;;1.10;0.50;;;;;;;8.27;78.00;99233.50;5054231;28;20250;-79
2023/01/09 11:35:20;;;;;;;1.60;0.60;;;;;;;8.16;76.91;99245.97;5054072;28;20202;-78
2023/01/09 11:37:50;;;;;;;2.37;0.60;;;;;;;8.16;76.67;99244.19;5054583;28;20247;-79
2023/01/09 11:40:19;;;;;;;1.57;0.40;;;;;;;8.20;75.71;99272.72;5049889;28;20279;-79
2023/01/09 11:43:02;;;;;;;0.90;0.90;;;;;;;8.40;77.45;99259.16;5045861;28;20202;-79
2023/01/09 11:45:32;;;;;;;1.07;0.50;;;;;;;8.35;76.08;99256.69;5052652;28;20258;-79
2023/01/09 11:47:58;;;;;;;0.93;0.50;;;;;;;8.44;76.25;99264.25;5054672;28;20212;-78
2023/01/09 11:50:27;;;;;;;1.70;0.90;;;;;;;8.52;76.47;99272.69;5053889;28;20233;-79
2023/01/09 11:53:13;;;;;;;2.90;0.70;;;;;;;8.44;75.18;99289.41;5053879;28;20235;-79
2023/01/09 11:55:40;;;;;;;1.40;0.40;;;;;;;8.51;76.01;99290.94;5054308;28;20205;-79
2023/01/09 11:58:12;;;;;;;2.43;0.70;;;;;;;8.55;75.01;99316.81;5054110;28;20254;-79
2023/01/09 12:00:47;;;;;;;1.60;0.60;;;;;;;8.78;76.25;99296.22;5053977;28;20224;-78
2023/01/09 12:03:25;;;;;;;1.70;0.50;;;;;;;8.69;75.62;99308.59;5054501;28;20212;-79
2023/01/09 12:05:58;;;;;;;0.70;0.43;;;;;;;8.69;74.41;99308.59;5053661;28;20286;-78